Currently 76°F in Riverside (Presidential Park), California, USA
76°F
90°F / 66°F
3 mph W
0.00"
Tuesday, August 14, 2018 9:54 PM PDT

Riverside (Presidential Park), California Weather Summary
Last 36 Hours

Temperature Winds Hourly Humidity Dewpoint
Time Report Norm Report Norm Max Gusts Precip. Rpt. Norm Rpt. Norm Pressure
1Tue 09:54 PM  76.2°F  77°F  3 mph W  3 mph  7 mph  0.00"  57%  50%  59°F  56°F  29.87"
Tue 09:00 PM  78.4°F  79°F  4 mph W  3 mph  11 mph  0.00"  46%  46%  55°F  55°F  29.85"
Tue 08:00 PM  79.8°F  81°F  5 mph SW  4 mph  15 mph  0.00"  45%  41%  56°F  55°F  29.83"
Tue 07:00 PM  82.9°F  85°F  9 mph SW  6 mph  16 mph  0.00"  38%  35%  54°F  54°F  29.81"
Tue 06:00 PM  84.7°F  88°F  9 mph SW  8 mph  18 mph  0.00"  33%  32%  52°F  53°F  29.81"
Tue 05:00 PM  85.3°F  90°F  10 mph SW  8 mph  19 mph  0.00"  38%  29%  56°F  53°F  29.81"
Tue 04:00 PM  87.2°F  92°F  7 mph W  8 mph  17 mph  0.00"  33%  28%  54°F  53°F  29.81"
Tue 03:00 PM  89.7°F  92°F  3 mph SW  8 mph  15 mph  0.00"  27%  27%  50°F  53°F  29.83"
2Tue 02:56 PM  89.8°F  92°F  6 mph SW  8 mph  14 mph  ----  26%  27%  49°F  53°F  29.83"
Tue 02:00 PM  88.0°F  92°F  3 mph W  7 mph  12 mph  0.00"  29%  28%  51°F  54°F  29.85"
Tue 01:00 PM  85.5°F  90°F  6 mph W  5 mph  13 mph  0.00"  27%  31%  47°F  54°F  29.87"
Tue 12:00 PM  83.3°F  87°F  4 mph NW  5 mph  9 mph  0.00"  33%  37%  50°F  56°F  29.89"
Tue 11:00 AM  80.3°F  83°F  2 mph W  3 mph  8 mph  0.00"  43%  44%  55°F  58°F  29.91"
Tue 10:00 AM  77.3°F  79°F  4 mph NE  2 mph  6 mph  0.00"  51%  52%  57°F  59°F  29.92"
Tue 09:00 AM  72.5°F  75°F  2 mph NW  2 mph  6 mph  0.00"  60%  60%  57°F  59°F  29.91"
Tue 08:00 AM  69.0°F  70°F  3 mph W  1 mph  5 mph  0.00"  67%  69%  57°F  59°F  29.91"
Tue 07:00 AM  66.4°F  67°F  calm  1 mph  2 mph  0.00"  72%  72%  57°F  57°F  29.91"
3Tue 06:36 AM  66.0°F  67°F  calm  1 mph  none  ----  72%  72%  56°F  57°F  29.90"
Tue 06:00 AM  66.3°F  67°F  1 mph SE  1 mph  3 mph  0.00"  70%  71%  56°F  57°F  29.89"
Tue 05:00 AM  66.5°F  67°F  calm  1 mph  3 mph  0.00"  69%  70%  56°F  57°F  29.89"
Tue 04:00 AM  67.2°F  68°F  calm  1 mph  3 mph  0.00"  67%  68%  55°F  57°F  29.90"
Tue 03:00 AM  68.4°F  69°F  2 mph SE  1 mph  3 mph  0.00"  65%  66%  56°F  57°F  29.91"
Tue 02:00 AM  69.9°F  70°F  calm  1 mph  3 mph  0.00"  65%  64%  57°F  57°F  29.92"
Tue 01:00 AM  70.7°F  71°F  2 mph W  1 mph  5 mph  0.00"  63%  62%  57°F  57°F  29.92"
Tue 12:00 AM  71.9°F  73°F  2 mph W  1 mph  6 mph  0.00"  60%  58%  57°F  57°F  29.92"
Mon 11:00 PM  73.6°F  74°F  4 mph NW  2 mph  6 mph  0.00"  56%  55%  56°F  57°F  29.92"
Mon 10:00 PM  74.4°F  76°F  2 mph NW  3 mph  8 mph  0.00"  51%  51%  55°F  56°F  29.92"
Mon 09:00 PM  76.8°F  79°F  2 mph W  3 mph  13 mph  0.00"  43%  46%  52°F  55°F  29.90"
Mon 08:00 PM  79.4°F  82°F  4 mph W  4 mph  14 mph  0.00"  35%  41%  49°F  55°F  29.88"
Mon 07:00 PM  82.8°F  85°F  7 mph W  6 mph  14 mph  0.00"  31%  35%  48°F  53°F  29.87"
Mon 06:00 PM  85.7°F  88°F  9 mph SW  8 mph  15 mph  0.00"  25%  31%  44°F  53°F  29.86"
Mon 05:00 PM  86.6°F  90°F  10 mph SW  8 mph  18 mph  0.00"  26%  29%  46°F  53°F  29.86"
Mon 04:00 PM  88.5°F  92°F  5 mph SW  8 mph  18 mph  0.00"  26%  28%  48°F  53°F  29.87"
Mon 03:00 PM  89.9°F  93°F  7 mph SW  8 mph  13 mph  0.00"  29%  27%  52°F  52°F  29.89"
Mon 02:00 PM  88.4°F  92°F  3 mph SW  7 mph  13 mph  0.00"  31%  28%  53°F  53°F  29.91"
Mon 01:00 PM  86.8°F  90°F  6 mph SW  5 mph  9 mph  0.00"  30%  31%  51°F  54°F  29.93"
Mon 12:00 PM  84.7°F  87°F  2 mph SE  4 mph  7 mph  0.00"  38%  36%  55°F  56°F  29.95"
Mon 11:00 AM  81.4°F  83°F  calm  3 mph  6 mph  0.00"  46%  44%  58°F  58°F  29.97"
Mon 10:00 AM  78.4°F  79°F  3 mph SE  2 mph  5 mph  0.00"  51%  52%  58°F  59°F  29.98"

  1. Current weather data. No green row appears if the current weather data is also the high or low for the current day.
  2. High temperature for the current day.
  3. Low temperature for the current day.

The Riverside (Presidential Park), California weather pages are a service of WeatherCurrents.
Copyright ©Tue Aug 14 21:55:38 PDT 2018  WeatherCurrents. All rights reserved. - Submit questions and comments - Privacy Policy

This page automatically refreshes every 10 minutes.